Aeroporto :
LOGIN :

Iscrizione | Disclaimer

   EN    FR    IT 

 










Sommario :    VFR   VFR Marginale   IFR   IFR Intensivo   IFR Molto Intensivo
Visibilità : 
Base nubi : 
>= 8 km
>= 3000ft
5 / 8 km
1000 / 3000 ft
1500m / 5 km
500 / 1000 ft
800 / 1500m
200 / 500 ft
< 800m
< 200 ft
Simboli :   Temporali  Nebbia  Neve Forte  Precipitazioni Forti  Vento > 20 kt
SIGMETs :   Varie  Temporali  Ghiacco  Turbolenza  Onda orograficha  Ceneri Vulcaniche






- Altitudine del aeroporto : 56 ft
- Codice IATA : TRD


ENVA - Trondheim , Værnes

ULTIMO METAR :
  • 200450Z 11006KT 9999 -DZ FEW006 SCT012 OVC019 06/05 Q1016 BECMG 25012KT TEMPO RA BKN012 RMK WIND 670FT 18006KT

METARs OBSOLETI :
  • 200420Z 10008KT 9999 FEW015 SCT025 OVC035 06/04 Q1016 RMK WIND 670FT 16008KT
  • 200350Z 10006KT 9999 FEW020 BKN040 06/04 Q1017 RMK WIND 670FT 16004KT
  • 200320Z 11008KT 9999 FEW035 BKN045 05/04 Q1017 RMK WIND 670FT 16005KT
  • 200250Z 13008KT 9999 OVC046 05/04 Q1018 RMK WIND 670FT 15005KT
  • 200220Z 10006KT 050V130 9999 SCT053 OVC066 05/04 Q1018 RMK WIND 670FT 16005KT

TAF TAF ENVA
Valido dal 20 a 00 ore il 21 a 00 ore UTC


2000/2024 12005KT 9999 FEW020 BKN040
BECMG 2006/2008 25012KT
TEMPO 2008/2011 RA BKN014
TEMPO 2006/2018 27018G30KT



MetMap, La meteo Aeronautica in un colpo d'occhio ! - Copyright ORBIFLY Dicembre 2007 - Disclaimer

ORBIFLY MET'MAP TEAM :

Programmazione e sviluppo : Alexandra Zaïnal
Concezione : Baudouin d'Aumeries
Aiuto per la programmazione : Marc-Olivier Méhu
Supporto tecnico e logistico : Manuel Goepfert
Aiuto per la traduzione : Arnaldo La Scala

Contatto : metmap@orbifly.com




FONTI E CREDITI :

   NOAA